sensor_id;sensor_type;location;lat;lon;timestamp;P1;durP1;ratioP1;P2;durP2;ratioP2
29916;SDS011;16786;49.466;11.068;2022-07-25T00:00:35;14.60;;;13.20;;
29916;SDS011;16786;49.466;11.068;2022-07-25T00:03:03;15.10;;;13.60;;
29916;SDS011;16786;49.466;11.068;2022-07-25T00:08:03;14.50;;;13.10;;
29916;SDS011;16786;49.466;11.068;2022-07-25T00:10:31;15.20;;;13.70;;
29916;SDS011;16786;49.466;11.068;2022-07-25T00:12:58;18.10;;;14.30;;
29916;SDS011;16786;49.466;11.068;2022-07-25T00:15:26;14.60;;;12.93;;
29916;SDS011;16786;49.466;11.068;2022-07-25T00:17:54;14.88;;;13.38;;
29916;SDS011;16786;49.466;11.068;2022-07-25T00:20:22;14.77;;;13.20;;
29916;SDS011;16786;49.466;11.068;2022-07-25T00:22:49;14.73;;;13.23;;
29916;SDS011;16786;49.466;11.068;2022-07-25T00:25:17;15.95;;;14.27;;
29916;SDS011;16786;49.466;11.068;2022-07-25T00:27:44;15.13;;;13.65;;
29916;SDS011;16786;49.466;11.068;2022-07-25T00:30:11;14.68;;;13.38;;
29916;SDS011;16786;49.466;11.068;2022-07-25T00:32:39;14.60;;;13.13;;
29916;SDS011;16786;49.466;11.068;2022-07-25T00:35:06;15.18;;;13.68;;
29916;SDS011;16786;49.466;11.068;2022-07-25T00:37:34;15.35;;;13.73;;
29916;SDS011;16786;49.466;11.068;2022-07-25T00:40:02;15.15;;;13.45;;
29916;SDS011;16786;49.466;11.068;2022-07-25T00:42:30;15.18;;;13.65;;
29916;SDS011;16786;49.466;11.068;2022-07-25T00:44:58;14.60;;;13.13;;
29916;SDS011;16786;49.466;11.068;2022-07-25T00:47:25;14.82;;;13.27;;
29916;SDS011;16786;49.466;11.068;2022-07-25T00:49:53;14.98;;;13.38;;
29916;SDS011;16786;49.466;11.068;2022-07-25T00:52:20;15.27;;;13.43;;
29916;SDS011;16786;49.466;11.068;2022-07-25T00:54:50;15.02;;;13.55;;
29916;SDS011;16786;49.466;11.068;2022-07-25T00:57:17;14.77;;;13.15;;
29916;SDS011;16786;49.466;11.068;2022-07-25T00:59:45;16.15;;;13.45;;
29916;SDS011;16786;49.466;11.068;2022-07-25T01:02:12;14.95;;;12.90;;
29916;SDS011;16786;49.466;11.068;2022-07-25T01:04:40;14.55;;;13.05;;
29916;SDS011;16786;49.466;11.068;2022-07-25T01:07:07;14.82;;;13.20;;
29916;SDS011;16786;49.466;11.068;2022-07-25T01:09:35;14.40;;;13.00;;
29916;SDS011;16786;49.466;11.068;2022-07-25T01:12:02;13.85;;;12.55;;
29916;SDS011;16786;49.466;11.068;2022-07-25T01:14:37;14.85;;;13.32;;
29916;SDS011;16786;49.466;11.068;2022-07-25T01:17:04;14.38;;;12.80;;
29916;SDS011;16786;49.466;11.068;2022-07-25T01:19:32;14.38;;;12.98;;
29916;SDS011;16786;49.466;11.068;2022-07-25T01:21:59;14.40;;;12.98;;
29916;SDS011;16786;49.466;11.068;2022-07-25T01:24:27;14.70;;;12.35;;
29916;SDS011;16786;49.466;11.068;2022-07-25T01:26:55;14.48;;;13.05;;
29916;SDS011;16786;49.466;11.068;2022-07-25T01:29:22;14.38;;;12.88;;
29916;SDS011;16786;49.466;11.068;2022-07-25T01:31:49;13.90;;;12.50;;
29916;SDS011;16786;49.466;11.068;2022-07-25T01:34:17;13.68;;;12.32;;
29916;SDS011;16786;49.466;11.068;2022-07-25T01:36:44;13.50;;;12.23;;
29916;SDS011;16786;49.466;11.068;2022-07-25T01:39:11;14.93;;;13.27;;
29916;SDS011;16786;49.466;11.068;2022-07-25T01:41:38;15.25;;;13.63;;
29916;SDS011;16786;49.466;11.068;2022-07-25T01:44:06;15.00;;;13.25;;
29916;SDS011;16786;49.466;11.068;2022-07-25T01:46:34;15.00;;;13.55;;
29916;SDS011;16786;49.466;11.068;2022-07-25T01:49:01;14.13;;;12.73;;
29916;SDS011;16786;49.466;11.068;2022-07-25T01:51:29;14.25;;;12.85;;
29916;SDS011;16786;49.466;11.068;2022-07-25T01:53:56;14.15;;;12.55;;
29916;SDS011;16786;49.466;11.068;2022-07-25T01:56:23;14.63;;;13.23;;
29916;SDS011;16786;49.466;11.068;2022-07-25T01:58:50;14.50;;;13.10;;
29916;SDS011;16786;49.466;11.068;2022-07-25T02:01:18;13.82;;;12.48;;
29916;SDS011;16786;49.466;11.068;2022-07-25T02:03:48;14.00;;;12.68;;
29916;SDS011;16786;49.466;11.068;2022-07-25T02:06:16;14.13;;;12.63;;
29916;SDS011;16786;49.466;11.068;2022-07-25T02:08:44;15.60;;;13.95;;
29916;SDS011;16786;49.466;11.068;2022-07-25T02:11:11;14.50;;;13.10;;
29916;SDS011;16786;49.466;11.068;2022-07-25T02:13:39;14.73;;;13.23;;
29916;SDS011;16786;49.466;11.068;2022-07-25T02:16:06;15.40;;;13.68;;
29916;SDS011;16786;49.466;11.068;2022-07-25T02:18:33;14.55;;;13.18;;
29916;SDS011;16786;49.466;11.068;2022-07-25T02:21:01;13.50;;;12.25;;
29916;SDS011;16786;49.466;11.068;2022-07-25T02:23:40;14.60;;;13.07;;
29916;SDS011;16786;49.466;11.068;2022-07-25T02:26:08;15.43;;;13.93;;
29916;SDS011;16786;49.466;11.068;2022-07-25T02:28:36;14.18;;;12.20;;
29916;SDS011;16786;49.466;11.068;2022-07-25T02:31:03;14.10;;;12.70;;
29916;SDS011;16786;49.466;11.068;2022-07-25T02:33:30;14.07;;;12.77;;
29916;SDS011;16786;49.466;11.068;2022-07-25T02:35:58;14.23;;;12.63;;
29916;SDS011;16786;49.466;11.068;2022-07-25T02:38:25;14.35;;;12.93;;
29916;SDS011;16786;49.466;11.068;2022-07-25T02:40:52;13.48;;;12.27;;
29916;SDS011;16786;49.466;11.068;2022-07-25T02:43:21;14.55;;;13.13;;
29916;SDS011;16786;49.466;11.068;2022-07-25T02:45:48;15.25;;;13.85;;
29916;SDS011;16786;49.466;11.068;2022-07-25T02:48:16;13.90;;;12.60;;
29916;SDS011;16786;49.466;11.068;2022-07-25T02:50:43;15.20;;;13.40;;
29916;SDS011;16786;49.466;11.068;2022-07-25T02:53:10;15.23;;;13.57;;
29916;SDS011;16786;49.466;11.068;2022-07-25T02:55:37;15.30;;;13.65;;
29916;SDS011;16786;49.466;11.068;2022-07-25T02:58:05;13.95;;;12.65;;
29916;SDS011;16786;49.466;11.068;2022-07-25T03:00:32;14.93;;;13.48;;
29916;SDS011;16786;49.466;11.068;2022-07-25T03:02:59;14.88;;;13.38;;
29916;SDS011;16786;49.466;11.068;2022-07-25T03:05:29;14.38;;;12.93;;
29916;SDS011;16786;49.466;11.068;2022-07-25T03:07:57;14.48;;;12.98;;
29916;SDS011;16786;49.466;11.068;2022-07-25T03:10:24;17.42;;;14.18;;
29916;SDS011;16786;49.466;11.068;2022-07-25T03:12:51;15.15;;;13.05;;
29916;SDS011;16786;49.466;11.068;2022-07-25T03:15:18;16.77;;;14.27;;
29916;SDS011;16786;49.466;11.068;2022-07-25T03:17:46;15.23;;;13.75;;
29916;SDS011;16786;49.466;11.068;2022-07-25T03:20:13;15.05;;;13.55;;
29916;SDS011;16786;49.466;11.068;2022-07-25T03:22:40;14.85;;;13.50;;
29916;SDS011;16786;49.466;11.068;2022-07-25T03:25:08;15.25;;;13.82;;
29916;SDS011;16786;49.466;11.068;2022-07-25T03:27:47;14.52;;;13.02;;
29916;SDS011;16786;49.466;11.068;2022-07-25T03:30:14;15.38;;;13.88;;
29916;SDS011;16786;49.466;11.068;2022-07-25T03:32:41;15.75;;;14.25;;
29916;SDS011;16786;49.466;11.068;2022-07-25T03:35:08;15.80;;;14.10;;
29916;SDS011;16786;49.466;11.068;2022-07-25T03:37:36;16.08;;;14.30;;
29916;SDS011;16786;49.466;11.068;2022-07-25T03:40:04;17.15;;;14.00;;
29916;SDS011;16786;49.466;11.068;2022-07-25T03:42:32;16.08;;;14.48;;
29916;SDS011;16786;49.466;11.068;2022-07-25T03:45:01;17.30;;;14.45;;
29916;SDS011;16786;49.466;11.068;2022-07-25T03:47:28;16.73;;;15.13;;
29916;SDS011;16786;49.466;11.068;2022-07-25T03:49:56;16.50;;;14.80;;
29916;SDS011;16786;49.466;11.068;2022-07-25T03:52:23;16.23;;;14.55;;
29916;SDS011;16786;49.466;11.068;2022-07-25T03:54:50;16.08;;;14.48;;
29916;SDS011;16786;49.466;11.068;2022-07-25T03:57:18;16.10;;;14.43;;
29916;SDS011;16786;49.466;11.068;2022-07-25T03:59:45;15.63;;;14.10;;
29916;SDS011;16786;49.466;11.068;2022-07-25T04:02:12;15.40;;;13.90;;
29916;SDS011;16786;49.466;11.068;2022-07-25T04:04:40;16.40;;;13.68;;
29916;SDS011;16786;49.466;11.068;2022-07-25T04:07:07;16.67;;;14.25;;
29916;SDS011;16786;49.466;11.068;2022-07-25T04:09:35;16.48;;;14.65;;
29916;SDS011;16786;49.466;11.068;2022-07-25T04:12:03;15.65;;;12.90;;
29916;SDS011;16786;49.466;11.068;2022-07-25T04:14:31;15.10;;;13.63;;
29916;SDS011;16786;49.466;11.068;2022-07-25T04:16:58;15.00;;;13.40;;
29916;SDS011;16786;49.466;11.068;2022-07-25T04:19:25;16.13;;;14.45;;
29916;SDS011;16786;49.466;11.068;2022-07-25T04:21:54;15.48;;;13.98;;
29916;SDS011;16786;49.466;11.068;2022-07-25T04:24:22;16.15;;;13.98;;
29916;SDS011;16786;49.466;11.068;2022-07-25T04:26:49;17.50;;;14.35;;
29916;SDS011;16786;49.466;11.068;2022-07-25T04:29:16;16.15;;;14.65;;
29916;SDS011;16786;49.466;11.068;2022-07-25T04:31:43;16.00;;;14.18;;
29916;SDS011;16786;49.466;11.068;2022-07-25T04:34:11;16.58;;;14.93;;
29916;SDS011;16786;49.466;11.068;2022-07-25T04:36:38;17.77;;;15.27;;
29916;SDS011;16786;49.466;11.068;2022-07-25T04:39:06;16.80;;;15.07;;
29916;SDS011;16786;49.466;11.068;2022-07-25T04:41:33;17.77;;;14.95;;
29916;SDS011;16786;49.466;11.068;2022-07-25T04:44:01;17.17;;;15.00;;
29916;SDS011;16786;49.466;11.068;2022-07-25T04:46:28;16.40;;;14.80;;
29916;SDS011;16786;49.466;11.068;2022-07-25T04:48:56;16.50;;;14.80;;
29916;SDS011;16786;49.466;11.068;2022-07-25T04:51:23;17.38;;;15.23;;
29916;SDS011;16786;49.466;11.068;2022-07-25T04:53:50;18.17;;;15.45;;
29916;SDS011;16786;49.466;11.068;2022-07-25T04:56:18;16.77;;;15.07;;
29916;SDS011;16786;49.466;11.068;2022-07-25T04:58:45;16.63;;;14.93;;
29916;SDS011;16786;49.466;11.068;2022-07-25T05:01:12;17.13;;;15.40;;
29916;SDS011;16786;49.466;11.068;2022-07-25T05:03:40;17.85;;;16.10;;
29916;SDS011;16786;49.466;11.068;2022-07-25T05:06:16;16.52;;;14.73;;
29916;SDS011;16786;49.466;11.068;2022-07-25T05:08:44;17.08;;;15.32;;
29916;SDS011;16786;49.466;11.068;2022-07-25T05:11:11;16.38;;;14.75;;
29916;SDS011;16786;49.466;11.068;2022-07-25T05:13:39;17.00;;;15.50;;
29916;SDS011;16786;49.466;11.068;2022-07-25T05:16:06;16.70;;;15.00;;
29916;SDS011;16786;49.466;11.068;2022-07-25T05:18:33;16.92;;;15.18;;
29916;SDS011;16786;49.466;11.068;2022-07-25T05:21:01;16.95;;;15.02;;
29916;SDS011;16786;49.466;11.068;2022-07-25T05:23:28;16.35;;;14.75;;
29916;SDS011;16786;49.466;11.068;2022-07-25T05:25:55;17.20;;;15.00;;
29916;SDS011;16786;49.466;11.068;2022-07-25T05:28:23;18.52;;;15.20;;
29916;SDS011;16786;49.466;11.068;2022-07-25T05:30:50;16.83;;;14.68;;
29916;SDS011;16786;49.466;11.068;2022-07-25T05:33:17;15.85;;;14.25;;
29916;SDS011;16786;49.466;11.068;2022-07-25T05:35:45;16.83;;;15.32;;
29916;SDS011;16786;49.466;11.068;2022-07-25T05:38:12;15.80;;;14.10;;
29916;SDS011;16786;49.466;11.068;2022-07-25T05:40:39;18.58;;;14.35;;
29916;SDS011;16786;49.466;11.068;2022-07-25T05:43:07;18.73;;;14.30;;
29916;SDS011;16786;49.466;11.068;2022-07-25T05:45:34;16.17;;;14.13;;
29916;SDS011;16786;49.466;11.068;2022-07-25T05:48:02;15.75;;;14.25;;
29916;SDS011;16786;49.466;11.068;2022-07-25T05:50:29;17.00;;;14.30;;
29916;SDS011;16786;49.466;11.068;2022-07-25T05:52:57;15.10;;;13.70;;
29916;SDS011;16786;49.466;11.068;2022-07-25T05:55:24;14.88;;;13.38;;
29916;SDS011;16786;49.466;11.068;2022-07-25T05:57:51;14.60;;;13.13;;
29916;SDS011;16786;49.466;11.068;2022-07-25T06:00:19;15.75;;;13.05;;
29916;SDS011;16786;49.466;11.068;2022-07-25T06:02:46;14.57;;;13.05;;
29916;SDS011;16786;49.466;11.068;2022-07-25T06:05:14;14.18;;;12.88;;
29916;SDS011;16786;49.466;11.068;2022-07-25T06:07:41;13.90;;;12.50;;
29916;SDS011;16786;49.466;11.068;2022-07-25T06:10:08;14.10;;;12.80;;
29916;SDS011;16786;49.466;11.068;2022-07-25T06:12:35;13.55;;;12.35;;
29916;SDS011;16786;49.466;11.068;2022-07-25T06:15:04;14.95;;;12.77;;
29916;SDS011;16786;49.466;11.068;2022-07-25T06:17:31;13.80;;;12.48;;
29916;SDS011;16786;49.466;11.068;2022-07-25T06:19:59;14.07;;;11.75;;
29916;SDS011;16786;49.466;11.068;2022-07-25T06:22:26;14.93;;;12.82;;
29916;SDS011;16786;49.466;11.068;2022-07-25T06:24:55;14.63;;;13.15;;
29916;SDS011;16786;49.466;11.068;2022-07-25T06:27:22;14.68;;;11.70;;
29916;SDS011;16786;49.466;11.068;2022-07-25T06:29:55;14.82;;;13.30;;
29916;SDS011;16786;49.466;11.068;2022-07-25T06:32:22;14.20;;;12.80;;
29916;SDS011;16786;49.466;11.068;2022-07-25T06:34:49;14.93;;;13.35;;
29916;SDS011;16786;49.466;11.068;2022-07-25T06:37:17;13.70;;;12.38;;
29916;SDS011;16786;49.466;11.068;2022-07-25T06:39:44;13.25;;;11.95;;
29916;SDS011;16786;49.466;11.068;2022-07-25T06:42:11;13.60;;;12.30;;
29916;SDS011;16786;49.466;11.068;2022-07-25T06:44:39;13.43;;;12.13;;
29916;SDS011;16786;49.466;11.068;2022-07-25T06:47:06;12.90;;;11.75;;
29916;SDS011;16786;49.466;11.068;2022-07-25T06:52:08;14.60;;;13.25;;
29916;SDS011;16786;49.466;11.068;2022-07-25T06:54:36;14.88;;;13.48;;
29916;SDS011;16786;49.466;11.068;2022-07-25T06:57:03;13.82;;;12.45;;
29916;SDS011;16786;49.466;11.068;2022-07-25T06:59:31;14.88;;;13.35;;
29916;SDS011;16786;49.466;11.068;2022-07-25T07:01:59;13.60;;;12.40;;
29916;SDS011;16786;49.466;11.068;2022-07-25T07:04:26;14.60;;;13.30;;
29916;SDS011;16786;49.466;11.068;2022-07-25T07:06:54;15.57;;;13.63;;
29916;SDS011;16786;49.466;11.068;2022-07-25T07:09:21;14.35;;;13.05;;
29916;SDS011;16786;49.466;11.068;2022-07-25T07:11:48;17.40;;;13.50;;
29916;SDS011;16786;49.466;11.068;2022-07-25T07:14:15;14.48;;;13.10;;
29916;SDS011;16786;49.466;11.068;2022-07-25T07:16:43;14.45;;;13.05;;
29916;SDS011;16786;49.466;11.068;2022-07-25T07:19:10;13.95;;;12.55;;
29916;SDS011;16786;49.466;11.068;2022-07-25T07:21:41;13.57;;;11.70;;
29916;SDS011;16786;49.466;11.068;2022-07-25T07:24:09;13.25;;;11.95;;
29916;SDS011;16786;49.466;11.068;2022-07-25T07:26:50;17.27;;;11.90;;
29916;SDS011;16786;49.466;11.068;2022-07-25T07:29:19;13.40;;;12.13;;
29916;SDS011;16786;49.466;11.068;2022-07-25T07:31:46;16.77;;;15.02;;
29916;SDS011;16786;49.466;11.068;2022-07-25T07:34:14;12.82;;;11.65;;
29916;SDS011;16786;49.466;11.068;2022-07-25T07:36:42;12.75;;;11.55;;
29916;SDS011;16786;49.466;11.068;2022-07-25T07:39:09;13.10;;;11.82;;
29916;SDS011;16786;49.466;11.068;2022-07-25T07:41:37;12.93;;;11.77;;
29916;SDS011;16786;49.466;11.068;2022-07-25T07:44:04;12.45;;;11.30;;
29916;SDS011;16786;49.466;11.068;2022-07-25T07:46:32;12.82;;;11.82;;
29916;SDS011;16786;49.466;11.068;2022-07-25T07:48:59;12.63;;;11.32;;
29916;SDS011;16786;49.466;11.068;2022-07-25T07:51:27;12.73;;;11.40;;
29916;SDS011;16786;49.466;11.068;2022-07-25T07:53:54;16.20;;;11.30;;
29916;SDS011;16786;49.466;11.068;2022-07-25T07:56:40;13.00;;;11.80;;
29916;SDS011;16786;49.466;11.068;2022-07-25T07:59:07;13.10;;;11.80;;
29916;SDS011;16786;49.466;11.068;2022-07-25T08:01:35;12.63;;;11.15;;
29916;SDS011;16786;49.466;11.068;2022-07-25T08:04:03;12.45;;;11.18;;
29916;SDS011;16786;49.466;11.068;2022-07-25T08:06:30;11.10;;;10.10;;
29916;SDS011;16786;49.466;11.068;2022-07-25T08:08:58;13.48;;;11.50;;
29916;SDS011;16786;49.466;11.068;2022-07-25T08:11:25;11.10;;;10.18;;
29916;SDS011;16786;49.466;11.068;2022-07-25T08:13:52;14.48;;;10.88;;
29916;SDS011;16786;49.466;11.068;2022-07-25T08:16:19;11.77;;;10.68;;
29916;SDS011;16786;49.466;11.068;2022-07-25T08:18:47;12.23;;;11.02;;
29916;SDS011;16786;49.466;11.068;2022-07-25T08:21:14;13.27;;;10.57;;
29916;SDS011;16786;49.466;11.068;2022-07-25T08:23:41;12.65;;;11.43;;
29916;SDS011;16786;49.466;11.068;2022-07-25T08:26:11;11.95;;;10.95;;
29916;SDS011;16786;49.466;11.068;2022-07-25T08:28:40;12.10;;;11.05;;
29916;SDS011;16786;49.466;11.068;2022-07-25T08:31:07;12.00;;;10.75;;
29916;SDS011;16786;49.466;11.068;2022-07-25T08:33:35;12.00;;;10.77;;
29916;SDS011;16786;49.466;11.068;2022-07-25T08:36:03;12.63;;;11.20;;
29916;SDS011;16786;49.466;11.068;2022-07-25T08:38:31;11.13;;;10.13;;
29916;SDS011;16786;49.466;11.068;2022-07-25T08:40:58;12.15;;;10.88;;
29916;SDS011;16786;49.466;11.068;2022-07-25T08:43:25;11.90;;;10.80;;
29916;SDS011;16786;49.466;11.068;2022-07-25T08:45:55;11.48;;;10.38;;
29916;SDS011;16786;49.466;11.068;2022-07-25T08:48:23;11.88;;;10.65;;
29916;SDS011;16786;49.466;11.068;2022-07-25T08:50:52;11.48;;;10.38;;
29916;SDS011;16786;49.466;11.068;2022-07-25T08:53:23;12.00;;;10.82;;
29916;SDS011;16786;49.466;11.068;2022-07-25T08:56:02;11.55;;;10.38;;
29916;SDS011;16786;49.466;11.068;2022-07-25T08:58:36;12.15;;;11.05;;
29916;SDS011;16786;49.466;11.068;2022-07-25T09:01:04;12.07;;;10.90;;
29916;SDS011;16786;49.466;11.068;2022-07-25T09:03:33;12.68;;;11.48;;
29916;SDS011;16786;49.466;11.068;2022-07-25T09:06:11;13.02;;;11.68;;
29916;SDS011;16786;49.466;11.068;2022-07-25T09:08:56;14.27;;;12.88;;
29916;SDS011;16786;49.466;11.068;2022-07-25T09:11:26;12.02;;;10.90;;
29916;SDS011;16786;49.466;11.068;2022-07-25T09:13:57;13.52;;;11.77;;
29916;SDS011;16786;49.466;11.068;2022-07-25T09:16:29;12.38;;;11.25;;
29916;SDS011;16786;49.466;11.068;2022-07-25T09:19:32;12.68;;;11.57;;
29916;SDS011;16786;49.466;11.068;2022-07-25T09:22:02;12.63;;;11.40;;
29916;SDS011;16786;49.466;11.068;2022-07-25T09:24:32;12.88;;;11.75;;
29916;SDS011;16786;49.466;11.068;2022-07-25T09:27:07;15.20;;;12.55;;
29916;SDS011;16786;49.466;11.068;2022-07-25T09:29:38;13.48;;;12.13;;
29916;SDS011;16786;49.466;11.068;2022-07-25T09:32:15;14.00;;;12.63;;
29916;SDS011;16786;49.466;11.068;2022-07-25T09:34:45;13.73;;;12.45;;
29916;SDS011;16786;49.466;11.068;2022-07-25T09:37:15;14.05;;;12.05;;
29916;SDS011;16786;49.466;11.068;2022-07-25T09:39:49;13.48;;;12.27;;
29916;SDS011;16786;49.466;11.068;2022-07-25T09:42:21;13.38;;;12.15;;
29916;SDS011;16786;49.466;11.068;2022-07-25T09:45:23;12.70;;;11.50;;
29916;SDS011;16786;49.466;11.068;2022-07-25T09:47:52;12.98;;;11.77;;
29916;SDS011;16786;49.466;11.068;2022-07-25T09:50:22;14.63;;;12.07;;
29916;SDS011;16786;49.466;11.068;2022-07-25T09:52:51;13.75;;;12.45;;
29916;SDS011;16786;49.466;11.068;2022-07-25T09:55:20;13.30;;;12.20;;
29916;SDS011;16786;49.466;11.068;2022-07-25T09:57:48;13.40;;;12.30;;
29916;SDS011;16786;49.466;11.068;2022-07-25T10:00:19;13.48;;;12.18;;
29916;SDS011;16786;49.466;11.068;2022-07-25T10:08:40;13.55;;;12.35;;
29916;SDS011;16786;49.466;11.068;2022-07-25T10:11:21;13.20;;;12.00;;
29916;SDS011;16786;49.466;11.068;2022-07-25T10:13:52;13.20;;;12.10;;
29916;SDS011;16786;49.466;11.068;2022-07-25T10:16:21;13.40;;;12.20;;
29916;SDS011;16786;49.466;11.068;2022-07-25T10:21:21;13.52;;;12.27;;
29916;SDS011;16786;49.466;11.068;2022-07-25T10:24:01;13.82;;;12.52;;
29916;SDS011;16786;49.466;11.068;2022-07-25T10:26:32;13.45;;;12.25;;
29916;SDS011;16786;49.466;11.068;2022-07-25T10:29:06;13.15;;;11.80;;
29916;SDS011;16786;49.466;11.068;2022-07-25T10:31:40;13.30;;;12.10;;
29916;SDS011;16786;49.466;11.068;2022-07-25T10:34:26;13.43;;;12.00;;
29916;SDS011;16786;49.466;11.068;2022-07-25T10:37:07;13.43;;;12.33;;
29916;SDS011;16786;49.466;11.068;2022-07-25T10:39:39;13.75;;;12.45;;
29916;SDS011;16786;49.466;11.068;2022-07-25T10:42:14;13.45;;;12.27;;
29916;SDS011;16786;49.466;11.068;2022-07-25T10:44:43;13.50;;;12.02;;
29916;SDS011;16786;49.466;11.068;2022-07-25T10:47:13;13.38;;;12.20;;
29916;SDS011;16786;49.466;11.068;2022-07-25T10:49:43;12.30;;;11.27;;
29916;SDS011;16786;49.466;11.068;2022-07-25T10:52:39;12.63;;;11.43;;
29916;SDS011;16786;49.466;11.068;2022-07-25T10:55:08;12.18;;;11.07;;
29916;SDS011;16786;49.466;11.068;2022-07-25T10:57:35;14.02;;;11.48;;
29916;SDS011;16786;49.466;11.068;2022-07-25T11:00:23;11.35;;;10.35;;
29916;SDS011;16786;49.466;11.068;2022-07-25T11:02:54;11.10;;;10.18;;
29916;SDS011;16786;49.466;11.068;2022-07-25T11:05:23;13.15;;;10.50;;
29916;SDS011;16786;49.466;11.068;2022-07-25T11:07:51;9.93;;;9.13;;
29916;SDS011;16786;49.466;11.068;2022-07-25T11:10:40;10.90;;;9.57;;
29916;SDS011;16786;49.466;11.068;2022-07-25T11:13:15;9.52;;;8.73;;
29916;SDS011;16786;49.466;11.068;2022-07-25T11:15:43;10.40;;;9.50;;
29916;SDS011;16786;49.466;11.068;2022-07-25T11:18:11;10.27;;;9.38;;
29916;SDS011;16786;49.466;11.068;2022-07-25T11:20:39;10.95;;;9.82;;
29916;SDS011;16786;49.466;11.068;2022-07-25T11:23:07;10.77;;;9.88;;
29916;SDS011;16786;49.466;11.068;2022-07-25T11:25:34;11.23;;;10.15;;
29916;SDS011;16786;49.466;11.068;2022-07-25T11:28:03;11.93;;;10.73;;
29916;SDS011;16786;49.466;11.068;2022-07-25T11:30:31;12.48;;;11.35;;
29916;SDS011;16786;49.466;11.068;2022-07-25T11:32:59;11.50;;;10.48;;
29916;SDS011;16786;49.466;11.068;2022-07-25T11:35:31;12.10;;;10.90;;
29916;SDS011;16786;49.466;11.068;2022-07-25T11:37:59;12.90;;;11.73;;
29916;SDS011;16786;49.466;11.068;2022-07-25T11:40:29;12.57;;;11.55;;
29916;SDS011;16786;49.466;11.068;2022-07-25T11:42:59;12.45;;;11.38;;
29916;SDS011;16786;49.466;11.068;2022-07-25T11:45:28;12.90;;;11.68;;
29916;SDS011;16786;49.466;11.068;2022-07-25T11:48:07;11.73;;;10.73;;
29916;SDS011;16786;49.466;11.068;2022-07-25T11:50:40;11.93;;;10.73;;
29916;SDS011;16786;49.466;11.068;2022-07-25T11:53:11;11.65;;;10.65;;
29916;SDS011;16786;49.466;11.068;2022-07-25T11:55:41;11.68;;;10.75;;
29916;SDS011;16786;49.466;11.068;2022-07-25T11:58:10;12.32;;;11.05;;
29916;SDS011;16786;49.466;11.068;2022-07-25T12:00:41;11.40;;;10.45;;
29916;SDS011;16786;49.466;11.068;2022-07-25T12:03:13;12.25;;;11.15;;
29916;SDS011;16786;49.466;11.068;2022-07-25T12:05:46;11.65;;;10.73;;
29916;SDS011;16786;49.466;11.068;2022-07-25T12:08:15;11.55;;;10.65;;
29916;SDS011;16786;49.466;11.068;2022-07-25T12:10:45;12.55;;;11.55;;
29916;SDS011;16786;49.466;11.068;2022-07-25T12:13:25;12.80;;;11.60;;
29916;SDS011;16786;49.466;11.068;2022-07-25T12:15:55;13.70;;;11.90;;
29916;SDS011;16786;49.466;11.068;2022-07-25T12:18:23;12.20;;;11.23;;
29916;SDS011;16786;49.466;11.068;2022-07-25T12:20:51;12.68;;;11.57;;
29916;SDS011;16786;49.466;11.068;2022-07-25T12:23:18;12.30;;;11.30;;
29916;SDS011;16786;49.466;11.068;2022-07-25T12:25:47;11.90;;;11.00;;
29916;SDS011;16786;49.466;11.068;2022-07-25T12:28:15;12.77;;;11.75;;
29916;SDS011;16786;49.466;11.068;2022-07-25T12:30:43;12.50;;;11.50;;
29916;SDS011;16786;49.466;11.068;2022-07-25T12:33:11;12.30;;;11.25;;
29916;SDS011;16786;49.466;11.068;2022-07-25T12:35:40;11.60;;;10.70;;
29916;SDS011;16786;49.466;11.068;2022-07-25T12:38:07;12.40;;;11.30;;
29916;SDS011;16786;49.466;11.068;2022-07-25T12:40:36;14.10;;;12.45;;
29916;SDS011;16786;49.466;11.068;2022-07-25T12:43:04;12.90;;;11.82;;
29916;SDS011;16786;49.466;11.068;2022-07-25T12:45:31;13.05;;;11.85;;
29916;SDS011;16786;49.466;11.068;2022-07-25T12:47:59;12.00;;;11.10;;
29916;SDS011;16786;49.466;11.068;2022-07-25T12:50:26;13.38;;;12.27;;
29916;SDS011;16786;49.466;11.068;2022-07-25T12:52:54;12.35;;;11.15;;
29916;SDS011;16786;49.466;11.068;2022-07-25T12:55:21;12.98;;;11.80;;
29916;SDS011;16786;49.466;11.068;2022-07-25T12:57:49;11.85;;;10.85;;
29916;SDS011;16786;49.466;11.068;2022-07-25T13:00:17;12.32;;;11.25;;
29916;SDS011;16786;49.466;11.068;2022-07-25T13:02:46;12.82;;;11.70;;
29916;SDS011;16786;49.466;11.068;2022-07-25T13:05:18;12.25;;;11.20;;
29916;SDS011;16786;49.466;11.068;2022-07-25T13:07:46;12.38;;;11.38;;
29916;SDS011;16786;49.466;11.068;2022-07-25T13:10:15;11.32;;;10.23;;
29916;SDS011;16786;49.466;11.068;2022-07-25T13:12:43;9.90;;;9.00;;
29916;SDS011;16786;49.466;11.068;2022-07-25T13:15:11;9.82;;;8.93;;
29916;SDS011;16786;49.466;11.068;2022-07-25T13:17:39;9.80;;;9.00;;
29916;SDS011;16786;49.466;11.068;2022-07-25T13:20:07;9.98;;;9.02;;
29916;SDS011;16786;49.466;11.068;2022-07-25T13:22:35;9.60;;;8.77;;
29916;SDS011;16786;49.466;11.068;2022-07-25T13:25:03;9.20;;;8.27;;
29916;SDS011;16786;49.466;11.068;2022-07-25T13:27:30;8.90;;;8.10;;
29916;SDS011;16786;49.466;11.068;2022-07-25T13:29:58;8.18;;;7.47;;
29916;SDS011;16786;49.466;11.068;2022-07-25T13:32:25;9.27;;;8.05;;
29916;SDS011;16786;49.466;11.068;2022-07-25T13:34:54;9.38;;;8.50;;
29916;SDS011;16786;49.466;11.068;2022-07-25T13:37:21;8.93;;;8.05;;
29916;SDS011;16786;49.466;11.068;2022-07-25T13:39:49;8.20;;;7.50;;
29916;SDS011;16786;49.466;11.068;2022-07-25T13:42:16;7.88;;;7.18;;
29916;SDS011;16786;49.466;11.068;2022-07-25T13:44:44;7.75;;;6.85;;
29916;SDS011;16786;49.466;11.068;2022-07-25T13:47:11;7.40;;;6.70;;
29916;SDS011;16786;49.466;11.068;2022-07-25T13:49:39;6.68;;;6.00;;
29916;SDS011;16786;49.466;11.068;2022-07-25T13:52:07;7.22;;;6.63;;
29916;SDS011;16786;49.466;11.068;2022-07-25T13:54:34;7.93;;;7.32;;
29916;SDS011;16786;49.466;11.068;2022-07-25T13:57:02;8.20;;;7.45;;
29916;SDS011;16786;49.466;11.068;2022-07-25T13:59:29;8.60;;;7.80;;
29916;SDS011;16786;49.466;11.068;2022-07-25T14:01:56;8.50;;;7.80;;
29916;SDS011;16786;49.466;11.068;2022-07-25T14:04:24;9.00;;;8.20;;
29916;SDS011;16786;49.466;11.068;2022-07-25T14:06:51;8.90;;;8.07;;
29916;SDS011;16786;49.466;11.068;2022-07-25T14:09:19;8.50;;;7.80;;
29916;SDS011;16786;49.466;11.068;2022-07-25T14:11:47;8.38;;;7.68;;
29916;SDS011;16786;49.466;11.068;2022-07-25T14:14:14;9.32;;;8.52;;
29916;SDS011;16786;49.466;11.068;2022-07-25T14:16:42;8.95;;;7.95;;
29916;SDS011;16786;49.466;11.068;2022-07-25T14:19:09;8.45;;;7.85;;
29916;SDS011;16786;49.466;11.068;2022-07-25T14:21:37;9.00;;;8.23;;
29916;SDS011;16786;49.466;11.068;2022-07-25T14:24:05;9.30;;;8.10;;
29916;SDS011;16786;49.466;11.068;2022-07-25T14:26:33;8.85;;;8.15;;
29916;SDS011;16786;49.466;11.068;2022-07-25T14:29:01;8.90;;;8.20;;
29916;SDS011;16786;49.466;11.068;2022-07-25T14:31:29;9.07;;;8.27;;
29916;SDS011;16786;49.466;11.068;2022-07-25T14:33:58;9.20;;;7.63;;